SARI METAR and TAF weather

Enter ICAO airport designator
Station Type Date Time Source
SARI METAR 2021/09/24 02:00 UTC NOAA

SARI 240200Z 18004KT 9999 FEW030 SCT100 19/16 Q1017


Station Type Date Time Source
SARI Decoded METAR 2021/09/24 02:00 UTC NOAA

Iguazu Aerodrome, Argentina (SARI) 25-44S 054-28W 270M
Sep 23, 2021 - 10:00 PM EDT / 2021.09.24 0200 UTC
Wind: from the S (180 degrees) at 5 MPH (4 KT):0
Visibility: greater than 7 mile(s):0
Sky conditions: partly cloudy
Temperature: 66 F (19 C)
Dew Point: 60 F (16 C)
Relative Humidity: 82%
Pressure (altimeter): 30.03 in. Hg (1017 hPa)
ob: SARI 240200Z 18004KT 9999 FEW030 SCT100 19/16 Q1017
cycle: 2

Station Type Date Time Source
SARI TAF 2021/09/24 00:00 UTC NOAA

TAF SARI 232300Z 2400/2424 18005KT 9999 SCT030 BKN100 TX25/2419Z TN15/2410Z PROB30 2402/2406 7000 SHRA SCT025 FEW045CB BKN100
BECMG 2408/2410 6000 FEW020 SCT100
BECMG 2412/2414 CAVOK

Example: see airport list